sensor_id;sensor_type;location;lat;lon;timestamp;temperature;humidity
4435;DHT22;46552;52.150;8.428;2023-02-28T00:17:04;1.30;99.90
4435;DHT22;46552;52.150;8.428;2023-02-28T00:34:19;1.20;99.90
4435;DHT22;46552;52.150;8.428;2023-02-28T00:36:48;1.30;99.90
4435;DHT22;46552;52.150;8.428;2023-02-28T00:51:33;1.10;99.90
4435;DHT22;46552;52.150;8.428;2023-02-28T01:08:47;1.00;99.90
4435;DHT22;46552;52.150;8.428;2023-02-28T01:11:16;1.00;99.90
4435;DHT22;46552;52.150;8.428;2023-02-28T01:13:44;0.90;99.90
4435;DHT22;46552;52.150;8.428;2023-02-28T01:16:12;0.80;99.90
4435;DHT22;46552;52.150;8.428;2023-02-28T01:21:09;0.80;99.90
4435;DHT22;46552;52.150;8.428;2023-02-28T01:26:06;0.80;99.90
4435;DHT22;46552;52.150;8.428;2023-02-28T01:28:34;0.80;99.90
4435;DHT22;46552;52.150;8.428;2023-02-28T01:33:30;0.80;99.90
4435;DHT22;46552;52.150;8.428;2023-02-28T01:43:27;0.80;99.90
4435;DHT22;46552;52.150;8.428;2023-02-28T01:45:56;0.80;99.90
4435;DHT22;46552;52.150;8.428;2023-02-28T01:48:26;0.80;99.90
4435;DHT22;46552;52.150;8.428;2023-02-28T01:50:55;0.80;99.90
4435;DHT22;46552;52.150;8.428;2023-02-28T01:53:29;0.70;99.90
4435;DHT22;46552;52.150;8.428;2023-02-28T01:58:27;0.70;99.90
4435;DHT22;46552;52.150;8.428;2023-02-28T02:03:23;0.60;99.90
4435;DHT22;46552;52.150;8.428;2023-02-28T02:08:20;0.60;99.90
4435;DHT22;46552;52.150;8.428;2023-02-28T02:10:50;0.70;99.90
4435;DHT22;46552;52.150;8.428;2023-02-28T02:13:44;0.60;99.90
4435;DHT22;46552;52.150;8.428;2023-02-28T02:16:27;0.70;99.90
4435;DHT22;46552;52.150;8.428;2023-02-28T02:19:07;0.80;99.90
4435;DHT22;46552;52.150;8.428;2023-02-28T02:22:09;0.80;99.90
4435;DHT22;46552;52.150;8.428;2023-02-28T02:25:08;0.60;99.90
4435;DHT22;46552;52.150;8.428;2023-02-28T02:27:59;0.50;99.90
4435;DHT22;46552;52.150;8.428;2023-02-28T02:36:28;0.50;99.90
4435;DHT22;46552;52.150;8.428;2023-02-28T02:39:02;0.50;99.90
4435;DHT22;46552;52.150;8.428;2023-02-28T02:41:35;0.50;99.90
4435;DHT22;46552;52.150;8.428;2023-02-28T02:44:07;0.40;99.90
4435;DHT22;46552;52.150;8.428;2023-02-28T02:46:39;0.40;99.90
4435;DHT22;46552;52.150;8.428;2023-02-28T02:49:10;0.40;99.90
4435;DHT22;46552;52.150;8.428;2023-02-28T02:51:42;0.40;99.90
4435;DHT22;46552;52.150;8.428;2023-02-28T02:54:14;0.40;99.90
4435;DHT22;46552;52.150;8.428;2023-02-28T02:56:44;0.30;99.90
4435;DHT22;46552;52.150;8.428;2023-02-28T02:59:13;0.40;99.90
4435;DHT22;46552;52.150;8.428;2023-02-28T03:01:41;0.30;99.90
4435;DHT22;46552;52.150;8.428;2023-02-28T03:04:11;0.30;99.90
4435;DHT22;46552;52.150;8.428;2023-02-28T03:06:42;0.20;99.90
4435;DHT22;46552;52.150;8.428;2023-02-28T03:11:38;0.10;99.90
4435;DHT22;46552;52.150;8.428;2023-02-28T03:14:21;0.10;99.90
4435;DHT22;46552;52.150;8.428;2023-02-28T03:19:58;0.00;99.90
4435;DHT22;46552;52.150;8.428;2023-02-28T03:22:56;-0.40;99.90
4435;DHT22;46552;52.150;8.428;2023-02-28T03:25:32;-0.10;99.90
4435;DHT22;46552;52.150;8.428;2023-02-28T03:28:04;0.00;99.90
4435;DHT22;46552;52.150;8.428;2023-02-28T03:30:39;0.00;99.90
4435;DHT22;46552;52.150;8.428;2023-02-28T03:33:10;0.00;99.90
4435;DHT22;46552;52.150;8.428;2023-02-28T03:35:42;0.00;99.90
4435;DHT22;46552;52.150;8.428;2023-02-28T03:38:15;-0.10;99.90
4435;DHT22;46552;52.150;8.428;2023-02-28T03:40:48;-0.10;99.90
4435;DHT22;46552;52.150;8.428;2023-02-28T03:43:21;0.00;99.90
4435;DHT22;46552;52.150;8.428;2023-02-28T03:45:51;-0.10;99.90
4435;DHT22;46552;52.150;8.428;2023-02-28T03:48:22;-0.10;99.90
4435;DHT22;46552;52.150;8.428;2023-02-28T03:50:54;-0.10;99.90
4435;DHT22;46552;52.150;8.428;2023-02-28T03:53:27;-0.10;99.90
4435;DHT22;46552;52.150;8.428;2023-02-28T03:55:59;-0.10;99.90
4435;DHT22;46552;52.150;8.428;2023-02-28T03:58:30;0.10;99.90
4435;DHT22;46552;52.150;8.428;2023-02-28T04:01:03;-0.20;99.90
4435;DHT22;46552;52.150;8.428;2023-02-28T04:03:34;-0.30;99.90
4435;DHT22;46552;52.150;8.428;2023-02-28T04:08:32;-0.30;99.90
4435;DHT22;46552;52.150;8.428;2023-02-28T04:11:02;-0.40;99.90
4435;DHT22;46552;52.150;8.428;2023-02-28T04:25:54;-0.60;99.90
4435;DHT22;46552;52.150;8.428;2023-02-28T04:30:54;-0.70;99.90
4435;DHT22;46552;52.150;8.428;2023-02-28T04:35:58;-0.80;99.90
4435;DHT22;46552;52.150;8.428;2023-02-28T04:40:57;-0.90;99.90
4435;DHT22;46552;52.150;8.428;2023-02-28T04:43:25;-0.90;99.90
4435;DHT22;46552;52.150;8.428;2023-02-28T04:58:14;-1.00;99.90
4435;DHT22;46552;52.150;8.428;2023-02-28T05:08:04;-0.90;99.90
4435;DHT22;46552;52.150;8.428;2023-02-28T05:15:27;-1.10;99.90
4435;DHT22;46552;52.150;8.428;2023-02-28T05:25:20;-1.00;99.90
4435;DHT22;46552;52.150;8.428;2023-02-28T05:30:16;-1.30;99.90
4435;DHT22;46552;52.150;8.428;2023-02-28T05:32:50;-1.20;99.90
4435;DHT22;46552;52.150;8.428;2023-02-28T05:45:09;-1.40;99.90
4435;DHT22;46552;52.150;8.428;2023-02-28T05:50:06;-1.20;99.90
4435;DHT22;46552;52.150;8.428;2023-02-28T06:07:22;-1.50;99.90
4435;DHT22;46552;52.150;8.428;2023-02-28T06:24:36;-1.60;99.90
4435;DHT22;46552;52.150;8.428;2023-02-28T06:41:49;-1.50;99.90
4435;DHT22;46552;52.150;8.428;2023-02-28T06:44:18;-1.50;99.90
4435;DHT22;46552;52.150;8.428;2023-02-28T06:46:45;-1.50;99.90
4435;DHT22;46552;52.150;8.428;2023-02-28T06:51:42;-1.40;99.90
4435;DHT22;46552;52.150;8.428;2023-02-28T06:59:06;-1.30;99.90
4435;DHT22;46552;52.150;8.428;2023-02-28T07:04:02;-1.30;99.90
4435;DHT22;46552;52.150;8.428;2023-02-28T07:11:26;-1.10;99.90
4435;DHT22;46552;52.150;8.428;2023-02-28T07:16:25;-0.90;99.90
4435;DHT22;46552;52.150;8.428;2023-02-28T07:21:21;-0.70;99.90
4435;DHT22;46552;52.150;8.428;2023-02-28T07:26:19;-0.50;99.90
4435;DHT22;46552;52.150;8.428;2023-02-28T07:28:47;-0.30;99.90
4435;DHT22;46552;52.150;8.428;2023-02-28T07:31:15;-0.20;99.90
4435;DHT22;46552;52.150;8.428;2023-02-28T07:33:44;0.00;99.90
4435;DHT22;46552;52.150;8.428;2023-02-28T07:36:14;0.10;99.90
4435;DHT22;46552;52.150;8.428;2023-02-28T07:38:43;0.30;99.90
4435;DHT22;46552;52.150;8.428;2023-02-28T07:46:07;0.80;99.90
4435;DHT22;46552;52.150;8.428;2023-02-28T07:51:04;1.50;99.90
4435;DHT22;46552;52.150;8.428;2023-02-28T07:56:01;2.40;99.90
4435;DHT22;46552;52.150;8.428;2023-02-28T07:58:29;3.10;99.90
4435;DHT22;46552;52.150;8.428;2023-02-28T08:08:21;7.40;97.10
4435;DHT22;46552;52.150;8.428;2023-02-28T08:15:43;10.70;93.30
4435;DHT22;46552;52.150;8.428;2023-02-28T08:23:06;12.90;80.50
4435;DHT22;46552;52.150;8.428;2023-02-28T08:25:34;13.70;70.10
4435;DHT22;46552;52.150;8.428;2023-02-28T08:32:57;15.00;68.30
4435;DHT22;46552;52.150;8.428;2023-02-28T08:35:24;15.30;58.30
4435;DHT22;46552;52.150;8.428;2023-02-28T08:37:51;15.60;61.60
4435;DHT22;46552;52.150;8.428;2023-02-28T08:40:18;16.20;59.80
4435;DHT22;46552;52.150;8.428;2023-02-28T08:42:47;16.80;57.80
4435;DHT22;46552;52.150;8.428;2023-02-28T08:45:15;17.60;54.70
4435;DHT22;46552;52.150;8.428;2023-02-28T08:47:42;17.90;53.70
4435;DHT22;46552;52.150;8.428;2023-02-28T08:50:11;18.60;50.60
4435;DHT22;46552;52.150;8.428;2023-02-28T08:52:42;19.00;46.90
4435;DHT22;46552;52.150;8.428;2023-02-28T08:57:37;19.30;45.60
4435;DHT22;46552;52.150;8.428;2023-02-28T09:00:07;20.00;44.80
4435;DHT22;46552;52.150;8.428;2023-02-28T09:02:34;20.00;46.00
4435;DHT22;46552;52.150;8.428;2023-02-28T09:05:01;20.00;45.00
4435;DHT22;46552;52.150;8.428;2023-02-28T09:07:28;20.50;40.80
4435;DHT22;46552;52.150;8.428;2023-02-28T09:09:56;21.20;41.30
4435;DHT22;46552;52.150;8.428;2023-02-28T09:12:24;21.30;39.20
4435;DHT22;46552;52.150;8.428;2023-02-28T09:14:52;21.80;39.20
4435;DHT22;46552;52.150;8.428;2023-02-28T09:17:21;21.80;39.80
4435;DHT22;46552;52.150;8.428;2023-02-28T09:19:48;22.20;36.60
4435;DHT22;46552;52.150;8.428;2023-02-28T09:22:16;22.30;37.90
4435;DHT22;46552;52.150;8.428;2023-02-28T09:24:43;22.80;36.60
4435;DHT22;46552;52.150;8.428;2023-02-28T09:27:14;22.80;37.50
4435;DHT22;46552;52.150;8.428;2023-02-28T09:29:41;23.20;34.70
4435;DHT22;46552;52.150;8.428;2023-02-28T09:32:09;23.70;34.10
4435;DHT22;46552;52.150;8.428;2023-02-28T09:34:38;23.80;35.60
4435;DHT22;46552;52.150;8.428;2023-02-28T09:37:05;23.90;33.20
4435;DHT22;46552;52.150;8.428;2023-02-28T09:39:32;24.30;34.80
4435;DHT22;46552;52.150;8.428;2023-02-28T09:41:59;24.30;31.20
4435;DHT22;46552;52.150;8.428;2023-02-28T09:44:30;24.50;31.30
4435;DHT22;46552;52.150;8.428;2023-02-28T09:47:01;24.60;32.40
4435;DHT22;46552;52.150;8.428;2023-02-28T09:49:38;24.60;29.90
4435;DHT22;46552;52.150;8.428;2023-02-28T09:52:10;24.80;31.70
4435;DHT22;46552;52.150;8.428;2023-02-28T09:54:38;25.10;31.20
4435;DHT22;46552;52.150;8.428;2023-02-28T09:57:08;25.30;31.70
4435;DHT22;46552;52.150;8.428;2023-02-28T09:59:48;25.60;29.00
4435;DHT22;46552;52.150;8.428;2023-02-28T10:02:28;25.60;29.30
4435;DHT22;46552;52.150;8.428;2023-02-28T10:05:17;25.60;28.60
4435;DHT22;46552;52.150;8.428;2023-02-28T10:07:54;25.60;28.10
4435;DHT22;46552;52.150;8.428;2023-02-28T10:10:29;25.60;28.50
4435;DHT22;46552;52.150;8.428;2023-02-28T10:12:59;25.80;26.80
4435;DHT22;46552;52.150;8.428;2023-02-28T10:15:31;25.50;27.40
4435;DHT22;46552;52.150;8.428;2023-02-28T10:18:01;25.70;25.60
4435;DHT22;46552;52.150;8.428;2023-02-28T10:20:33;25.60;25.60
4435;DHT22;46552;52.150;8.428;2023-02-28T10:23:08;25.60;25.50
4435;DHT22;46552;52.150;8.428;2023-02-28T10:25:38;25.50;25.20
4435;DHT22;46552;52.150;8.428;2023-02-28T10:28:11;25.60;25.60
4435;DHT22;46552;52.150;8.428;2023-02-28T10:30:41;25.60;26.40
4435;DHT22;46552;52.150;8.428;2023-02-28T10:33:20;25.50;26.20
4435;DHT22;46552;52.150;8.428;2023-02-28T10:35:49;26.40;25.40
4435;DHT22;46552;52.150;8.428;2023-02-28T10:38:20;25.70;26.20
4435;DHT22;46552;52.150;8.428;2023-02-28T10:40:47;25.50;25.00
4435;DHT22;46552;52.150;8.428;2023-02-28T10:43:21;25.70;26.50
4435;DHT22;46552;52.150;8.428;2023-02-28T10:46:01;25.80;26.40
4435;DHT22;46552;52.150;8.428;2023-02-28T10:48:37;25.80;26.00
4435;DHT22;46552;52.150;8.428;2023-02-28T10:51:08;25.40;26.20
4435;DHT22;46552;52.150;8.428;2023-02-28T10:53:44;25.30;24.70
4435;DHT22;46552;52.150;8.428;2023-02-28T10:56:18;25.60;25.10
4435;DHT22;46552;52.150;8.428;2023-02-28T10:58:50;25.40;26.20
4435;DHT22;46552;52.150;8.428;2023-02-28T11:01:19;25.80;26.30
4435;DHT22;46552;52.150;8.428;2023-02-28T11:03:47;25.80;24.60
4435;DHT22;46552;52.150;8.428;2023-02-28T11:06:18;25.90;25.00
4435;DHT22;46552;52.150;8.428;2023-02-28T11:08:49;25.70;24.40
4435;DHT22;46552;52.150;8.428;2023-02-28T11:11:17;26.00;25.20
4435;DHT22;46552;52.150;8.428;2023-02-28T11:13:46;25.60;25.60
4435;DHT22;46552;52.150;8.428;2023-02-28T11:16:16;25.80;25.90
4435;DHT22;46552;52.150;8.428;2023-02-28T11:18:48;25.70;25.50
4435;DHT22;46552;52.150;8.428;2023-02-28T11:21:22;25.60;25.60
4435;DHT22;46552;52.150;8.428;2023-02-28T11:23:52;25.80;25.70
4435;DHT22;46552;52.150;8.428;2023-02-28T11:26:40;25.50;25.20
4435;DHT22;46552;52.150;8.428;2023-02-28T11:29:17;25.50;25.60
4435;DHT22;46552;52.150;8.428;2023-02-28T11:32:02;24.90;24.20
4435;DHT22;46552;52.150;8.428;2023-02-28T11:34:29;24.40;26.40
4435;DHT22;46552;52.150;8.428;2023-02-28T11:37:01;23.50;25.30
4435;DHT22;46552;52.150;8.428;2023-02-28T11:39:32;22.20;26.90
4435;DHT22;46552;52.150;8.428;2023-02-28T11:42:16;21.50;26.50
4435;DHT22;46552;52.150;8.428;2023-02-28T11:45:03;21.30;26.60
4435;DHT22;46552;52.150;8.428;2023-02-28T11:47:41;21.80;26.30
4435;DHT22;46552;52.150;8.428;2023-02-28T11:50:20;22.60;28.30
4435;DHT22;46552;52.150;8.428;2023-02-28T11:52:53;23.20;26.20
4435;DHT22;46552;52.150;8.428;2023-02-28T11:55:25;23.50;28.00
4435;DHT22;46552;52.150;8.428;2023-02-28T11:58:11;22.40;28.00
4435;DHT22;46552;52.150;8.428;2023-02-28T12:00:57;21.10;26.90
4435;DHT22;46552;52.150;8.428;2023-02-28T12:03:33;20.40;29.90
4435;DHT22;46552;52.150;8.428;2023-02-28T12:06:18;19.50;31.00
4435;DHT22;46552;52.150;8.428;2023-02-28T12:09:09;18.50;28.90
4435;DHT22;46552;52.150;8.428;2023-02-28T12:11:48;18.00;29.50
4435;DHT22;46552;52.150;8.428;2023-02-28T12:17:40;17.00;35.00
4435;DHT22;46552;52.150;8.428;2023-02-28T12:20:21;16.40;30.60
4435;DHT22;46552;52.150;8.428;2023-02-28T12:22:58;16.50;31.00
4435;DHT22;46552;52.150;8.428;2023-02-28T12:26:00;16.60;30.80
4435;DHT22;46552;52.150;8.428;2023-02-28T12:28:32;16.80;32.30
4435;DHT22;46552;52.150;8.428;2023-02-28T12:31:03;16.90;35.20
4435;DHT22;46552;52.150;8.428;2023-02-28T12:33:34;16.80;31.00
4435;DHT22;46552;52.150;8.428;2023-02-28T12:36:07;16.90;31.00
4435;DHT22;46552;52.150;8.428;2023-02-28T12:38:41;16.90;31.20
4435;DHT22;46552;52.150;8.428;2023-02-28T12:41:14;17.00;31.10
4435;DHT22;46552;52.150;8.428;2023-02-28T12:43:45;17.20;31.30
4435;DHT22;46552;52.150;8.428;2023-02-28T12:46:17;17.30;31.50
4435;DHT22;46552;52.150;8.428;2023-02-28T12:48:48;17.40;31.20
4435;DHT22;46552;52.150;8.428;2023-02-28T12:51:19;17.30;31.00
4435;DHT22;46552;52.150;8.428;2023-02-28T12:54:06;17.10;34.70
4435;DHT22;46552;52.150;8.428;2023-02-28T12:56:44;17.30;31.00
4435;DHT22;46552;52.150;8.428;2023-02-28T12:59:21;17.30;31.10
4435;DHT22;46552;52.150;8.428;2023-02-28T13:02:17;17.40;35.20
4435;DHT22;46552;52.150;8.428;2023-02-28T13:05:22;17.40;35.30
4435;DHT22;46552;52.150;8.428;2023-02-28T13:08:29;17.40;35.80
4435;DHT22;46552;52.150;8.428;2023-02-28T13:11:03;17.40;35.80
4435;DHT22;46552;52.150;8.428;2023-02-28T13:13:32;17.40;31.60
4435;DHT22;46552;52.150;8.428;2023-02-28T13:16:02;17.10;34.70
4435;DHT22;46552;52.150;8.428;2023-02-28T13:18:32;17.20;31.40
4435;DHT22;46552;52.150;8.428;2023-02-28T13:23:41;16.60;31.40
4435;DHT22;46552;52.150;8.428;2023-02-28T13:35:37;15.50;34.60
4435;DHT22;46552;52.150;8.428;2023-02-28T13:38:36;15.80;35.00
4435;DHT22;46552;52.150;8.428;2023-02-28T13:41:40;15.70;32.90
4435;DHT22;46552;52.150;8.428;2023-02-28T13:44:08;15.50;34.80
4435;DHT22;46552;52.150;8.428;2023-02-28T13:47:15;15.50;31.70
4435;DHT22;46552;52.150;8.428;2023-02-28T13:49:28;15.50;31.70
4435;DHT22;46552;52.150;8.428;2023-02-28T13:52:09;15.50;32.00
4435;DHT22;46552;52.150;8.428;2023-02-28T13:54:45;15.50;31.60
4435;DHT22;46552;52.150;8.428;2023-02-28T13:57:27;15.20;31.70
4435;DHT22;46552;52.150;8.428;2023-02-28T14:00:07;15.00;31.80
4435;DHT22;46552;52.150;8.428;2023-02-28T14:02:54;15.10;32.20
4435;DHT22;46552;52.150;8.428;2023-02-28T14:05:27;15.10;32.30
4435;DHT22;46552;52.150;8.428;2023-02-28T14:07:57;15.10;32.40
4435;DHT22;46552;52.150;8.428;2023-02-28T14:10:27;15.20;32.60
4435;DHT22;46552;52.150;8.428;2023-02-28T14:12:58;15.20;32.60
4435;DHT22;46552;52.150;8.428;2023-02-28T14:15:47;15.20;34.10
4435;DHT22;46552;52.150;8.428;2023-02-28T14:18:21;15.30;32.80
4435;DHT22;46552;52.150;8.428;2023-02-28T14:20:54;15.40;37.80
4435;DHT22;46552;52.150;8.428;2023-02-28T14:32:37;15.20;34.10
4435;DHT22;46552;52.150;8.428;2023-02-28T14:35:20;15.20;34.00
4435;DHT22;46552;52.150;8.428;2023-02-28T14:37:51;15.10;34.20
4435;DHT22;46552;52.150;8.428;2023-02-28T14:40:25;15.00;34.50
4435;DHT22;46552;52.150;8.428;2023-02-28T14:42:56;14.90;34.50
4435;DHT22;46552;52.150;8.428;2023-02-28T14:45:27;14.80;34.30
4435;DHT22;46552;52.150;8.428;2023-02-28T14:47:57;14.70;34.60
4435;DHT22;46552;52.150;8.428;2023-02-28T14:50:30;14.70;34.70
4435;DHT22;46552;52.150;8.428;2023-02-28T14:53:03;14.50;34.70
4435;DHT22;46552;52.150;8.428;2023-02-28T14:55:34;14.30;39.60
4435;DHT22;46552;52.150;8.428;2023-02-28T14:58:03;14.50;35.00
4435;DHT22;46552;52.150;8.428;2023-02-28T15:00:33;14.30;39.60
4435;DHT22;46552;52.150;8.428;2023-02-28T15:03:18;14.40;35.00
4435;DHT22;46552;52.150;8.428;2023-02-28T15:05:52;14.30;34.80
4435;DHT22;46552;52.150;8.428;2023-02-28T15:08:21;14.20;34.90
4435;DHT22;46552;52.150;8.428;2023-02-28T15:10:54;14.10;38.20
4435;DHT22;46552;52.150;8.428;2023-02-28T15:13:23;14.00;35.30
4435;DHT22;46552;52.150;8.428;2023-02-28T15:15:53;13.90;35.10
4435;DHT22;46552;52.150;8.428;2023-02-28T15:18:27;13.80;35.30
4435;DHT22;46552;52.150;8.428;2023-02-28T15:20:56;13.70;35.70
4435;DHT22;46552;52.150;8.428;2023-02-28T15:23:25;13.60;35.70
4435;DHT22;46552;52.150;8.428;2023-02-28T15:25:53;13.50;35.70
4435;DHT22;46552;52.150;8.428;2023-02-28T15:28:22;13.40;36.00
4435;DHT22;46552;52.150;8.428;2023-02-28T15:30:56;13.20;36.10
4435;DHT22;46552;52.150;8.428;2023-02-28T15:33:25;13.00;36.70
4435;DHT22;46552;52.150;8.428;2023-02-28T15:36:04;12.90;36.90
4435;DHT22;46552;52.150;8.428;2023-02-28T15:38:35;12.70;37.40
4435;DHT22;46552;52.150;8.428;2023-02-28T15:43:35;12.50;37.50
4435;DHT22;46552;52.150;8.428;2023-02-28T15:46:04;12.40;37.60
4435;DHT22;46552;52.150;8.428;2023-02-28T15:48:34;12.30;38.20
4435;DHT22;46552;52.150;8.428;2023-02-28T15:51:06;12.10;38.60
4435;DHT22;46552;52.150;8.428;2023-02-28T15:53:37;11.90;38.70
4435;DHT22;46552;52.150;8.428;2023-02-28T15:56:20;11.90;43.10
4435;DHT22;46552;52.150;8.428;2023-02-28T16:01:20;11.60;39.90
4435;DHT22;46552;52.150;8.428;2023-02-28T16:03:51;11.40;40.30
4435;DHT22;46552;52.150;8.428;2023-02-28T16:06:38;11.20;43.20
4435;DHT22;46552;52.150;8.428;2023-02-28T16:09:11;11.10;40.80
4435;DHT22;46552;52.150;8.428;2023-02-28T16:11:42;10.90;41.30
4435;DHT22;46552;52.150;8.428;2023-02-28T16:14:15;10.80;41.70
4435;DHT22;46552;52.150;8.428;2023-02-28T16:16:44;10.80;41.70
4435;DHT22;46552;52.150;8.428;2023-02-28T16:26:36;10.20;41.70
4435;DHT22;46552;52.150;8.428;2023-02-28T16:29:07;10.10;42.10
4435;DHT22;46552;52.150;8.428;2023-02-28T16:31:37;10.00;42.40
4435;DHT22;46552;52.150;8.428;2023-02-28T16:43:59;9.30;44.40
4435;DHT22;46552;52.150;8.428;2023-02-28T16:46:30;9.20;44.70
4435;DHT22;46552;52.150;8.428;2023-02-28T16:56:23;8.70;45.80
4435;DHT22;46552;52.150;8.428;2023-02-28T16:58:52;8.70;46.50
4435;DHT22;46552;52.150;8.428;2023-02-28T17:01:23;8.60;46.50
4435;DHT22;46552;52.150;8.428;2023-02-28T17:06:23;8.40;47.10
4435;DHT22;46552;52.150;8.428;2023-02-28T17:08:51;8.40;47.50
4435;DHT22;46552;52.150;8.428;2023-02-28T17:13:48;8.20;47.80
4435;DHT22;46552;52.150;8.428;2023-02-28T17:16:22;8.10;48.10
4435;DHT22;46552;52.150;8.428;2023-02-28T17:26:13;7.70;49.20
4435;DHT22;46552;52.150;8.428;2023-02-28T17:28:42;8.00;57.70
4435;DHT22;46552;52.150;8.428;2023-02-28T17:33:40;7.60;50.10
4435;DHT22;46552;52.150;8.428;2023-02-28T17:36:10;7.50;50.20
4435;DHT22;46552;52.150;8.428;2023-02-28T17:41:09;7.30;51.00
4435;DHT22;46552;52.150;8.428;2023-02-28T17:51:03;7.10;51.90
4435;DHT22;46552;52.150;8.428;2023-02-28T18:08:16;6.60;53.70
4435;DHT22;46552;52.150;8.428;2023-02-28T18:23:02;6.00;56.30
4435;DHT22;46552;52.150;8.428;2023-02-28T18:25:31;6.00;56.80
4435;DHT22;46552;52.150;8.428;2023-02-28T18:30:27;5.90;57.80
4435;DHT22;46552;52.150;8.428;2023-02-28T18:38:05;5.70;59.10
4435;DHT22;46552;52.150;8.428;2023-02-28T18:40:36;5.60;59.70
4435;DHT22;46552;52.150;8.428;2023-02-28T18:57:50;5.40;63.60
4435;DHT22;46552;52.150;8.428;2023-02-28T19:00:18;5.20;73.80
4435;DHT22;46552;52.150;8.428;2023-02-28T19:07:43;5.30;66.00
4435;DHT22;46552;52.150;8.428;2023-02-28T19:10:11;5.20;76.00
4435;DHT22;46552;52.150;8.428;2023-02-28T19:15:10;5.30;77.20
4435;DHT22;46552;52.150;8.428;2023-02-28T19:20:06;5.00;68.70
4435;DHT22;46552;52.150;8.428;2023-02-28T19:32:26;4.40;73.30
4435;DHT22;46552;52.150;8.428;2023-02-28T19:49:42;4.40;78.00
4435;DHT22;46552;52.150;8.428;2023-02-28T20:04:26;3.90;83.10
4435;DHT22;46552;52.150;8.428;2023-02-28T20:06:56;3.70;84.20
4435;DHT22;46552;52.150;8.428;2023-02-28T20:24:16;3.40;90.10
4435;DHT22;46552;52.150;8.428;2023-02-28T20:41:29;3.40;91.40
4435;DHT22;46552;52.150;8.428;2023-02-28T20:43:57;3.30;91.80
4435;DHT22;46552;52.150;8.428;2023-02-28T20:46:27;3.30;92.10
4435;DHT22;46552;52.150;8.428;2023-02-28T20:51:22;3.30;92.40
4435;DHT22;46552;52.150;8.428;2023-02-28T20:56:18;4.20;93.00
4435;DHT22;46552;52.150;8.428;2023-02-28T20:58:49;3.10;92.80
4435;DHT22;46552;52.150;8.428;2023-02-28T21:01:18;3.00;93.50
4435;DHT22;46552;52.150;8.428;2023-02-28T21:03:53;2.90;94.40
4435;DHT22;46552;52.150;8.428;2023-02-28T21:06:22;2.80;94.80
4435;DHT22;46552;52.150;8.428;2023-02-28T21:11:20;2.70;95.30
4435;DHT22;46552;52.150;8.428;2023-02-28T21:13:49;2.70;95.60
4435;DHT22;46552;52.150;8.428;2023-02-28T21:16:19;2.70;95.80
4435;DHT22;46552;52.150;8.428;2023-02-28T21:18:47;2.70;95.70
4435;DHT22;46552;52.150;8.428;2023-02-28T21:21:17;2.60;95.80
4435;DHT22;46552;52.150;8.428;2023-02-28T21:26:14;2.50;96.20
4435;DHT22;46552;52.150;8.428;2023-02-28T21:28:49;2.50;96.10
4435;DHT22;46552;52.150;8.428;2023-02-28T21:31:18;2.60;96.30
4435;DHT22;46552;52.150;8.428;2023-02-28T21:36:15;2.50;96.30
4435;DHT22;46552;52.150;8.428;2023-02-28T21:38:44;2.50;96.70
4435;DHT22;46552;52.150;8.428;2023-02-28T21:41:14;2.50;96.50
4435;DHT22;46552;52.150;8.428;2023-02-28T21:43:42;2.40;96.70
4435;DHT22;46552;52.150;8.428;2023-02-28T21:46:12;2.30;96.90
4435;DHT22;46552;52.150;8.428;2023-02-28T21:48:41;2.20;97.30
4435;DHT22;46552;52.150;8.428;2023-02-28T21:51:11;2.20;97.40
4435;DHT22;46552;52.150;8.428;2023-02-28T21:56:07;2.00;99.90
4435;DHT22;46552;52.150;8.428;2023-02-28T22:01:05;2.10;97.70
4435;DHT22;46552;52.150;8.428;2023-02-28T22:03:34;2.20;97.80
4435;DHT22;46552;52.150;8.428;2023-02-28T22:06:08;2.20;97.70
4435;DHT22;46552;52.150;8.428;2023-02-28T22:16:01;2.20;98.00
4435;DHT22;46552;52.150;8.428;2023-02-28T22:20:59;2.10;97.80
4435;DHT22;46552;52.150;8.428;2023-02-28T22:23:38;2.00;98.20
4435;DHT22;46552;52.150;8.428;2023-02-28T22:26:07;2.10;98.00
4435;DHT22;46552;52.150;8.428;2023-02-28T22:28:35;2.00;98.10
4435;DHT22;46552;52.150;8.428;2023-02-28T22:31:12;2.00;98.20
4435;DHT22;46552;52.150;8.428;2023-02-28T22:36:10;1.70;98.70
4435;DHT22;46552;52.150;8.428;2023-02-28T22:41:06;1.70;98.60
4435;DHT22;46552;52.150;8.428;2023-02-28T22:48:30;1.40;99.40
4435;DHT22;46552;52.150;8.428;2023-02-28T22:51:01;1.40;99.50
4435;DHT22;46552;52.150;8.428;2023-02-28T22:53:32;1.30;99.70
4435;DHT22;46552;52.150;8.428;2023-02-28T23:08:19;1.20;99.90
4435;DHT22;46552;52.150;8.428;2023-02-28T23:10:49;1.20;99.90
4435;DHT22;46552;52.150;8.428;2023-02-28T23:18:12;1.00;99.90
4435;DHT22;46552;52.150;8.428;2023-02-28T23:28:04;0.70;99.90
4435;DHT22;46552;52.150;8.428;2023-02-28T23:37:55;0.70;99.90
4435;DHT22;46552;52.150;8.428;2023-02-28T23:45:19;0.70;99.90
4435;DHT22;46552;52.150;8.428;2023-02-28T23:55:09;0.70;99.90
